CheckWX is a tool to help pilots better visualize weather data.  It is not intended as a substitute for an official pre-flight weather briefing.

19:08:36 UTC

KAXA METAR
Algona Municipal Airport
Algona, Iowa, USA
Current

14 mins ago

KAXA 191855Z AUTO 16008KT 10SM CLR M11/M11 A3045 RMK AO2 PWINO
Observed
Feb-19 @ 18:55 UTC
Wind
  • 160° at 8 KTS
Visibility
10 SM
Flight Rules
VFR
Cloud Levels
  • Clear skies
Temperature
-11°C / 12°F
Dewpoint
-11°C / 12°F
Humidity
100%
Altimeter
30.45" Hg
Pressure
1031.11 hPa
Previous

34 mins ago

KAXA 191835Z AUTO 17009KT 10SM CLR M10/M10 A3046 RMK AO2 PWINO
Observed
Feb-19 @ 18:35 UTC
Wind
  • 170° at 9 KTS
Visibility
10 SM
Flight Rules
VFR
Cloud Levels
  • Clear skies
Temperature
-10°C / 14°F
Dewpoint
-10°C / 14°F
Humidity
100%
Altimeter
30.46" Hg
Pressure
1031.51 hPa
Previous

54 mins ago

KAXA 191815Z AUTO 16006KT 10SM CLR M10/M10 A3047 RMK AO2 PWINO
Observed
Feb-19 @ 18:15 UTC
Wind
  • 160° at 6 KTS
Visibility
10 SM
Flight Rules
VFR
Cloud Levels
  • Clear skies
Temperature
-10°C / 14°F
Dewpoint
-10°C / 14°F
Humidity
100%
Altimeter
30.47" Hg
Pressure
1031.81 hPa